• Join FlightAware (Why Join?)
  • Login
  • US Flag 
10:19AM EDT


 

Airport Tracker/Info


-or-


 

Live Flight TrackerFlight Track Log ✈ VH-YNL ✈ 29-Jun-2013 ✈ YPPF / PAL - YPPF / PAL

Flight Track Log - Related Links

Times and Time Zones

All times are in EDT time to prevent confusion due to time zone crossing. See the VH-YNL flight status page for this flight to view local times or setup timezone preferences in your user account.

Time Position Orientation Groundspeed Altitude Reporting Facility
EDT Latitude Longitude Course Direction KTS MPH feet Rate Location/Type
12:25AM -34.8079 138.6264 234° Southwest 73 84 600  Level Aus ATC (RADAR)
12:26AM -34.8153 138.6138 234° Southwest 78 90 1,200 1,020 Climbing Aus ATC (RADAR)
12:27AM -34.8190 138.5995 252° West 77 89 1,800 960 Climbing Aus ATC (RADAR)
12:27AM -34.8231 138.5828 253° West 77 89 2,400 840 Climbing Aus ATC (RADAR)
12:28AM -34.8256 138.5703 256° West 76 87 2,800 780 Climbing Aus ATC (RADAR)
12:28AM -34.8286 138.5554 256° West 78 90 3,300 840 Climbing Aus ATC (RADAR)
12:29AM -34.8318 138.5399 256° West 81 93 3,800 900 Climbing Aus ATC (RADAR)
12:29AM -34.8357 138.5273 249° West 79 91 4,300 840 Climbing Aus ATC (RADAR)
12:30AM -34.8488 138.5322 163° South 76 87 4,800 600 Climbing Aus ATC (RADAR)
12:31AM -34.8599 138.5396 152° Southeast 80 92 5,100 180 Climbing Aus ATC (RADAR)
12:31AM -34.8733 138.5473 155° Southeast 102 117 5,000 -120 Descending Aus ATC (RADAR)
12:32AM -34.8891 138.5571 153° Southeast 109 125 5,000  Level Aus ATC (RADAR)
12:33AM -34.9205 138.5751 155° Southeast 106 122 5,100  Climbing Aus ATC (RADAR)
12:34AM -34.9408 138.5878 153° Southeast 109 125 5,100 -120 Level Aus ATC (RADAR)
12:34AM -34.9619 138.5993 156° South 111 128 5,000  Descending Aus ATC (RADAR)
12:35AM -34.9772 138.6103 150° Southeast 108 124 5,100  Climbing Aus ATC (RADAR)
12:36AM -34.9807 138.6351 100° East 124 143 5,000 -120 Descending Aus ATC (RADAR)
12:36AM -34.9864 138.6570 108° East 119 137 5,000 60 Level Aus ATC (RADAR)
12:37AM -34.9930 138.6793 110° East 121 139 5,100  Climbing Aus ATC (RADAR)
12:37AM -35.0006 138.7047 110° East 120 138 5,000 -120 Descending Aus ATC (RADAR)
12:38AM -35.0066 138.7273 108° East 120 138 5,000  Level Aus ATC (RADAR)
12:39AM -35.0129 138.7494 109° East 118 136 5,000  Level Aus ATC (RADAR)
12:39AM -35.0186 138.7683 110° East 120 138 5,000  Level Aus ATC (RADAR)
12:40AM -35.0254 138.7901 111° Southeast 119 137 5,000  Level Aus ATC (RADAR)
12:40AM -35.0322 138.8123 111° Southeast 119 137 5,000  Level Aus ATC (RADAR)
12:41AM -35.0388 138.8342 110° East 119 137 5,000  Level Aus ATC (RADAR)
12:42AM -35.0515 138.8752 111° Southeast 120 138 5,000  Level Aus ATC (RADAR)
12:43AM -35.0608 138.9060 110° East 117 135 5,100  Climbing Aus ATC (RADAR)
12:44AM -35.0720 138.9427 110° East 115 132 5,100  Level Aus ATC (RADAR)
12:44AM -35.0782 138.9678 107° East 116 133 5,100 -120 Level Aus ATC (RADAR)
12:45AM -35.0877 139.0008 109° East 124 143 5,000 -60 Descending Aus ATC (RADAR)
12:46AM -35.1003 139.0427 110° East 122 140 5,000  Level Aus ATC (RADAR)
12:47AM -35.1066 139.0645 109° East 118 136 5,000 60 Level Aus ATC (RADAR)
12:48AM -35.1143 139.0933 108° East 118 136 5,100 60 Climbing Aus ATC (RADAR)
12:48AM -35.1218 139.1200 109° East 123 142 5,100  Level Aus ATC (RADAR)
12:49AM -35.1283 139.1422 110° East 119 137 5,100  Level Aus ATC (RADAR)
12:50AM -35.1362 139.1722 108° East 124 143 5,100  Level Aus ATC (RADAR)
12:51AM -35.1454 139.2147 105° East 120 138 5,100  Level Aus ATC (RADAR)
12:51AM -35.1542 139.2388 114° Southeast 117 135 5,100  Level Aus ATC (RADAR)
12:52AM -35.1612 139.2604 112° Southeast 117 135 5,100  Level Aus ATC (RADAR)
12:53AM -35.1686 139.2860 109° East 119 137 5,100  Level Aus ATC (RADAR)
12:53AM -35.1758 139.3076 112° Southeast 117 135 5,100  Level Aus ATC (RADAR)
12:54AM -35.1820 139.3297 109° East 118 136 5,100  Level Aus ATC (RADAR)
12:54AM -35.1884 139.3482 113° Southeast 118 136 5,100  Level Aus ATC (RADAR)
12:55AM -35.1968 139.3735 112° Southeast 122 140 5,100 -120 Level Aus ATC (RADAR)
12:56AM -35.2035 139.3962 110° East 122 140 5,000  Descending Aus ATC (RADAR)
12:56AM -35.2134 139.4282 111° Southeast 119 137 5,100  Climbing Aus ATC (RADAR)
12:57AM -35.2265 139.4647 114° Southeast 117 135 5,100 300 Level Aus ATC (RADAR)
12:58AM -35.2355 139.4864 117° Southeast 104 120 5,600 240 Climbing Aus ATC (RADAR)
12:59AM -35.2456 139.5219 109° East 114 131 5,500 -60 Descending Aus ATC (RADAR)
01:00AM -35.2518 139.5495 105° East 110 127 5,500  Level Aus ATC (RADAR)
01:00AM -35.2689 139.5390 207° Southwest 104 120 5,500  Level Aus ATC (RADAR)
01:01AM -35.2855 139.5254 214° Southwest 96 110 5,500  Level Aus ATC (RADAR)
01:02AM -35.3056 139.5044 220° Southwest 106 122 5,600  Climbing Aus ATC (RADAR)
01:03AM -35.2776 139.4815 326° Northwest 124 143 5,600 -60 Level Aus ATC (RADAR)
01:04AM -35.2432 139.5086 33° Northeast 141 162 5,500 -60 Descending Aus ATC (RADAR)
01:05AM -35.2176 139.5237 26° Northeast 140 161 5,500  Level Aus ATC (RADAR)
01:06AM -35.2044 139.5062 313° West 125 144 5,500  Level Aus ATC (RADAR)
01:06AM -35.2234 139.4907 214° Southwest 99 114 5,500  Level Aus ATC (RADAR)
01:07AM -35.2459 139.4736 212° Southwest 96 110 5,600  Climbing Aus ATC (RADAR)
01:08AM -35.2633 139.4608 211° Southwest 97 112 5,600 -180 Level Aus ATC (RADAR)
01:09AM -35.2763 139.4626 174° South 108 124 5,400 -120 Descending Aus ATC (RADAR)
01:09AM -35.2750 139.4844 86° East 102 117 5,500 60 Climbing Aus ATC (RADAR)
01:10AM -35.2497 139.5058 35° Northeast 136 157 5,500  Level Aus ATC (RADAR)
01:10AM -35.2320 139.5206 34° Northeast 133 153 5,500 -180 Level Aus ATC (RADAR)
01:15AM -35.1871 139.6172 60° Northeast 95 109 4,900 -180 Descending Aus ATC (RADAR)
01:15AM -35.1970 139.6023 231° Southwest 101 116 4,800 -480 Descending Aus ATC (RADAR)
01:16AM -35.2075 139.5777 243° Southwest 100 115 4,300 -420 Descending Aus ATC (RADAR)
01:17AM -35.2227 139.5508 235° Southwest 96 110 4,100 -120 Descending Aus ATC (RADAR)
01:18AM -35.2396 139.5197 236° Southwest 92 106 4,100  Level Aus ATC (RADAR)
01:19AM -35.2478 139.4921 250° West 107 123 4,200 480 Climbing Aus ATC (RADAR)
01:20AM -35.2265 139.4673 316° Northwest 100 115 5,100 720 Climbing Aus ATC (RADAR)
01:21AM -35.2114 139.4485 315° West 105 121 5,500 300 Climbing Aus ATC (RADAR)
01:22AM -35.1982 139.4308 312° West 117 135 5,500  Level Aus ATC (RADAR)
01:22AM -35.1984 139.4133 269° West 90 104 5,500  Level Aus ATC (RADAR)
01:23AM -35.2128 139.4090 194° South 98 113 5,500  Level Aus ATC (RADAR)
01:23AM -35.2273 139.4047 193° South 95 109 5,500 60 Level Aus ATC (RADAR)
01:24AM -35.2440 139.3989 196° South 94 108 5,600 60 Climbing Aus ATC (RADAR)
01:24AM -35.2567 139.4034 164° South 105 121 5,600 -240 Level Aus ATC (RADAR)
01:25AM -35.2641 139.4230 115° Southeast 111 128 5,400 -120 Descending Aus ATC (RADAR)
01:26AM -35.2661 139.4500 95° East 114 131 5,500 60 Climbing Aus ATC (RADAR)
01:26AM -35.2587 139.4704 66° East 123 142 5,500 60 Level Aus ATC (RADAR)
01:27AM -35.2499 139.4931 65° Northeast 122 140 5,600 -120 Climbing Aus ATC (RADAR)
01:28AM -35.2371 139.5214 61° Northeast 130 150 5,400 -120 Descending Aus ATC (RADAR)
01:28AM -35.2243 139.5356 42° Northeast 125 144 5,500 60 Climbing Aus ATC (RADAR)
01:29AM -35.2049 139.5253 336° Northwest 136 157 5,500  Level Aus ATC (RADAR)
01:29AM -35.2010 139.5072 285° West 88 101 5,500  Level Aus ATC (RADAR)
01:30AM -35.2155 139.4985 206° Southwest 102 117 5,500  Level Aus ATC (RADAR)
01:30AM -35.2295 139.4875 213° Southwest 92 106 5,500 60 Level Aus ATC (RADAR)
01:31AM -35.2404 139.4783 214° Southwest 95 109 5,600 -120 Climbing Aus ATC (RADAR)
01:31AM -35.2531 139.4684 213° Southwest 93 107 5,400 -120 Descending Aus ATC (RADAR)
01:32AM -35.2660 139.4580 213° Southwest 94 108 5,500 120 Climbing Aus ATC (RADAR)
01:33AM -35.2762 139.4822 118° Southeast 108 124 5,600 -60 Climbing Aus ATC (RADAR)
01:34AM -35.2440 139.5091 34° Northeast 143 165 5,400 -120 Descending Aus ATC (RADAR)
01:34AM -35.2239 139.5296 40° Northeast 147 169 5,500 -240 Climbing Aus ATC (RADAR)
01:39AM -35.2449 139.5076 221° Southwest 100 115 4,100 -180 Descending Aus ATC (RADAR)
01:40AM -35.2455 139.4853 268° West 114 131 4,600 660 Climbing Aus ATC (RADAR)
01:41AM -35.2268 139.4703 327° Northwest 105 121 5,100 720 Climbing Aus ATC (RADAR)
01:41AM -35.2166 139.4547 309° West 101 116 5,600 360 Climbing Aus ATC (RADAR)
01:42AM -35.2025 139.4320 307° West 126 145 5,600 60 Level Aus ATC (RADAR)
01:43AM -35.1715 139.4176 339° North 138 159 5,700  Climbing Aus ATC (RADAR)
01:44AM -35.1618 139.4494 70° East 136 157 5,700 120 Level Aus ATC (RADAR)
01:45AM -35.1588 139.4909 85° East 130 150 6,000 240 Climbing Aus ATC (RADAR)
01:46AM -35.1564 139.5204 84° East 131 151 6,100  Climbing Aus ATC (RADAR)
01:46AM -35.1596 139.5452 99° East 128 147 6,000 -120 Descending Aus ATC (RADAR)
01:47AM -35.1740 139.5704 125° Southeast 115 132 6,000 60 Level Aus ATC (RADAR)
01:48AM -35.2015 139.5644 190° South 107 123 6,100 60 Climbing Aus ATC (RADAR)
01:49AM -35.2186 139.5478 218° Southwest 120 138 6,100  Level Aus ATC (RADAR)
01:49AM -35.2342 139.5225 233° Southwest 112 129 6,100  Level Aus ATC (RADAR)
01:50AM -35.2492 139.5005 230° Southwest 114 131 6,100  Level Aus ATC (RADAR)
01:51AM -35.2599 139.4838 232° Southwest 108 124 6,100  Level Aus ATC (RADAR)
01:51AM -35.2705 139.4670 232° Southwest 107 123 6,100  Level Aus ATC (RADAR)
01:52AM -35.2797 139.4526 232° Southwest 106 122 6,100  Level Aus ATC (RADAR)
01:52AM -35.2911 139.4351 231° Southwest 111 128 6,100  Level Aus ATC (RADAR)
01:53AM -35.3020 139.4180 232° Southwest 111 128 6,100  Level Aus ATC (RADAR)
01:53AM -35.3142 139.4022 227° Southwest 110 127 6,100  Level Aus ATC (RADAR)
01:54AM -35.3264 139.3834 231° Southwest 108 124 6,100 -180 Level Aus ATC (RADAR)
01:55AM -35.3428 139.3590 230° Southwest 111 128 5,900  Descending Aus ATC (RADAR)
01:56AM -35.3614 139.3296 232° Southwest 111 128 6,100 120 Climbing Aus ATC (RADAR)
01:57AM -35.3733 139.3109 232° Southwest 105 121 6,100  Level Aus ATC (RADAR)
01:57AM -35.3837 139.2948 232° Southwest 104 120 6,100  Level Aus ATC (RADAR)
01:58AM -35.3944 139.2790 230° Southwest 104 120 6,100  Level Aus ATC (RADAR)
01:58AM -35.4054 139.2626 231° Southwest 106 122 6,100  Level Aus ATC (RADAR)
01:59AM -35.4183 139.2442 229° Southwest 107 123 6,100 -180 Level Aus ATC (RADAR)
02:00AM -35.4189 139.2112 269° West 136 157 5,900  Descending Aus ATC (RADAR)
02:01AM -35.4048 139.1931 314° West 126 145 6,100 120 Climbing Aus ATC (RADAR)
02:01AM -35.3915 139.1745 311° West 123 142 6,100 -180 Level Aus ATC (RADAR)
02:02AM -35.3799 139.1542 305° West 124 143 5,900  Descending Aus ATC (RADAR)
02:02AM -35.3655 139.1319 308° West 125 144 6,100 120 Climbing Aus ATC (RADAR)
02:03AM -35.3473 139.1093 315° West 125 144 6,100  Level Aus ATC (RADAR)
02:04AM -35.3174 139.0766 318° Northwest 122 140 6,100  Level Aus ATC (RADAR)
02:05AM -35.3031 139.0541 308° West 125 144 6,100 -120 Level Aus ATC (RADAR)
02:06AM -35.2896 139.0353 311° West 127 146 6,000 -120 Descending Aus ATC (RADAR)
02:06AM -35.2715 139.0079 309° West 124 143 6,000  Level Aus ATC (RADAR)
02:07AM -35.2535 138.9805 309° West 124 143 6,000 60 Level Aus ATC (RADAR)
02:08AM -35.2376 138.9560 308° West 123 142 6,100 60 Climbing Aus ATC (RADAR)
02:09AM -35.2251 138.9370 309° West 122 140 6,100 -240 Level Aus ATC (RADAR)
02:09AM -35.2093 138.9105 306° West 128 147 5,800 -540 Descending Aus ATC (RADAR)
02:10AM -35.1976 138.8919 308° West 119 137 5,400 -720 Descending Aus ATC (RADAR)
02:10AM -35.1867 138.8734 306° West 115 132 5,000 -360 Descending Aus ATC (RADAR)
02:11AM -35.1751 138.8550 308° West 118 136 5,000  Level Aus ATC (RADAR)
02:12AM -35.1648 138.8390 308° West 119 137 5,000 60 Level Aus ATC (RADAR)
02:12AM -35.1521 138.8205 310° West 121 139 5,100  Climbing Aus ATC (RADAR)
02:13AM -35.1391 138.8009 309° West 127 146 5,000 -120 Descending Aus ATC (RADAR)
02:13AM -35.1259 138.7818 310° West 127 146 5,000  Level Aus ATC (RADAR)
02:14AM -35.1124 138.7634 312° West 126 145 5,000 60 Level Aus ATC (RADAR)
02:15AM -35.0931 138.7410 316° Northwest 128 147 5,100  Climbing Aus ATC (RADAR)
02:16AM -35.0644 138.7132 322° Northwest 131 151 5,100  Level Aus ATC (RADAR)
02:16AM -35.0486 138.6866 306° West 129 148 5,100 -120 Level Aus ATC (RADAR)
02:17AM -35.0356 138.6659 307° West 129 148 5,000 -240 Descending Aus ATC (RADAR)
02:17AM -35.0255 138.6483 305° West 126 145 4,900 -360 Descending Aus ATC (RADAR)
02:18AM -35.0121 138.6275 308° West 118 136 4,600 -480 Descending Aus ATC (RADAR)
02:19AM -34.9953 138.6159 330° Northwest 119 137 4,300 -420 Descending Aus ATC (RADAR)
02:20AM -34.9691 138.5967 329° Northwest 121 139 4,000 -120 Descending Aus ATC (RADAR)
02:20AM -34.9441 138.5781 329° Northwest 128 147 4,100  Climbing Aus ATC (RADAR)
02:21AM -34.9260 138.5637 327° Northwest 132 152 4,000 -120 Descending Aus ATC (RADAR)
02:22AM -34.9062 138.5483 327° Northwest 127 146 4,000 -120 Level Aus ATC (RADAR)
02:22AM -34.8896 138.5347 326° Northwest 123 142 3,900 -480 Descending Aus ATC (RADAR)
02:23AM -34.8741 138.5224 327° Northwest 114 131 3,500 -660 Descending Aus ATC (RADAR)
02:23AM -34.8589 138.5109 328° Northwest 111 128 3,200 -660 Descending Aus ATC (RADAR)
02:24AM -34.8416 138.5089 355° North 116 133 2,800 -720 Descending Aus ATC (RADAR)
02:25AM -34.8295 138.5377 63° Northeast 113 130 2,200 -660 Descending Aus ATC (RADAR)
02:26AM -34.8177 138.5728 68° East 112 129 1,600 -420 Descending Aus ATC (RADAR)
02:27AM -34.8061 138.6014 64° Northeast 114 131 1,500 -120 Descending Aus ATC (RADAR)
02:27AM -34.7994 138.6219 68° East 114 131 1,500 -120 Level Aus ATC (RADAR)
02:28AM -34.8027 138.6485 99° East 108 124 1,400 -180 Descending Aus ATC (RADAR)